Morija, Lesotho
Current Conditions -  °F | °C
As of 5:00 PM on Monday 22 Dec 2014 (Local Time) from FABL Reporting Station
Few Clouds Few Clouds  
Wind Chill: 81°   Ceiling: Unl
Heat Index: 81°   Visibility: 4mi
Dew Point: 43°   Wind: 13mph
Humidity: 26%   Direction: 280°W
Pressure: 30"   Gusts: 28mph
Location:  29.63°S, 27.52°E
Report Text: FABL 221500Z 28011G24KT 7000 FEW050 27/06 Q1016 BECMG 3000
Loading
Personal Weather Stations






























Interactive Weather Map New forecast layout! Learn more

10-Day Weather Forecast

Advertisements
Track Severe Weather on mobile